ESGG/GOT METAR and TAF weather

Enter ICAO airport designator
Station Type Date Time Source
ESGG METAR 2021/07/26 15:50 UTC NOAA

ESGG 261550Z 09003KT CAVOK 25/16 Q1012


Station Type Date Time Source
ESGG Decoded METAR 2021/07/26 15:50 UTC NOAA

Goteborg / Landvetter, Sweden (ESGG) 57-40N 012-18E
Jul 26, 2021 - 11:50 AM EDT / 2021.07.26 1550 UTC
Wind: from the E (090 degrees) at 3 MPH (3 KT):0
Visibility: greater than 7 mile(s):0
Temperature: 77 F (25 C)
Dew Point: 60 F (16 C)
Relative Humidity: 57%
Pressure (altimeter): 29.88 in. Hg (1012 hPa)
ob: ESGG 261550Z 09003KT CAVOK 25/16 Q1012
cycle: 16

Station Type Date Time Source
ESGG TAF 2021/07/26 12:39 UTC NOAA

TAF TAF ESGG 261130Z 2612/2712 11009KT CAVOK
TEMPO 2612/2704 SHRA BKN050CB PROB40 2612/2620 3500 TSRA PROB40 2700/2705 2500 BR

Example: see airport list